Aviation Digital Data Service (ADDS)

Output produced by METARs form (1917 UTC 23 July 2016)
found at http://aviationweather.gov/adds/metars/
 
KMSS 231837Z 2319/2418 28010G18KT P6SM VCTS SCT045CB BKN080 
     TEMPO 2319/2320 4SM -SHRA BR BKN035 
     FM232200 32008KT P6SM SCT035 BKN120 
     FM240200 33004KT P6SM SKC 
     FM241300 26005KT P6SM SKC